createdAt,value
2023-03-29T00:00:08.277Z,67.63
2023-03-29T00:02:36.460Z,67.33
2023-03-29T00:05:05.354Z,66.95
2023-03-29T00:07:52.827Z,67.42
2023-03-29T00:10:22.579Z,67.57
2023-03-29T00:12:52.165Z,67.53
2023-03-29T00:15:21.836Z,67.23
2023-03-29T00:17:49.850Z,67.29
2023-03-29T00:20:17.977Z,67.56
2023-03-29T00:22:46.854Z,67.06
2023-03-29T00:25:15.215Z,67.08
2023-03-29T00:27:43.210Z,66.93
2023-03-29T00:30:11.794Z,66.89
2023-03-29T00:32:41.183Z,66.90
2023-03-29T00:35:09.971Z,67.19
2023-03-29T00:37:38.153Z,67.22
2023-03-29T00:40:11.217Z,67.12
2023-03-29T00:42:40.585Z,67.47
2023-03-29T00:45:18.985Z,67.46
2023-03-29T00:47:49.891Z,67.36
2023-03-29T00:50:22.423Z,67.14
2023-03-29T00:52:52.837Z,67.63
2023-03-29T00:55:23.001Z,67.58
2023-03-29T00:57:52.267Z,67.82
2023-03-29T01:00:22.429Z,67.61
2023-03-29T01:02:54.200Z,67.94
2023-03-29T01:05:26.014Z,67.76
2023-03-29T01:07:58.310Z,67.43
2023-03-29T01:10:28.885Z,67.85
2023-03-29T01:13:01.844Z,67.95
2023-03-29T01:15:30.060Z,67.77
2023-03-29T01:18:02.159Z,67.78
2023-03-29T01:20:43.600Z,68.15
2023-03-29T01:23:18.671Z,68.14
2023-03-29T01:25:49.076Z,67.83
2023-03-29T01:28:20.350Z,67.62
2023-03-29T01:30:51.371Z,67.35
2023-03-29T01:33:21.806Z,67.66
2023-03-29T01:35:52.705Z,68.15
2023-03-29T01:38:23.508Z,67.77
2023-03-29T01:40:51.552Z,67.72
2023-03-29T01:43:24.737Z,67.30
2023-03-29T01:45:56.889Z,67.62
2023-03-29T01:48:27.697Z,67.31
2023-03-29T01:50:57.303Z,67.44
2023-03-29T01:53:29.613Z,67.97
2023-03-29T01:56:00.008Z,67.96
2023-03-29T01:58:33.806Z,67.37
2023-03-29T02:01:05.936Z,67.47
2023-03-29T02:03:42.412Z,66.96
2023-03-29T02:06:12.407Z,67.17
2023-03-29T02:08:41.451Z,67.35
2023-03-29T02:11:10.011Z,67.40
2023-03-29T02:13:39.419Z,67.62
2023-03-29T02:16:12.461Z,67.55
2023-03-29T02:18:40.604Z,67.52
2023-03-29T02:21:10.362Z,67.53
2023-03-29T02:23:39.742Z,67.50
2023-03-29T02:26:09.061Z,67.52
2023-03-29T02:28:37.473Z,67.69
2023-03-29T02:31:10.657Z,67.61
2023-03-29T02:33:42.563Z,67.38
2023-03-29T02:36:13.960Z,67.47
2023-03-29T02:38:42.384Z,67.28
2023-03-29T02:41:10.756Z,67.38
2023-03-29T02:43:40.389Z,66.97
2023-03-29T02:46:10.305Z,67.02
2023-03-29T02:48:39.080Z,67.32
2023-03-29T02:51:10.589Z,67.31
2023-03-29T02:53:40.575Z,67.13
2023-03-29T02:56:09.918Z,67.45
2023-03-29T02:58:38.909Z,67.07
2023-03-29T03:01:07.895Z,66.93
2023-03-29T03:03:37.269Z,66.85
2023-03-29T03:06:06.072Z,66.80
2023-03-29T03:08:34.091Z,66.77
2023-03-29T03:11:02.281Z,66.76
2023-03-29T03:13:31.053Z,66.66
2023-03-29T03:15:59.181Z,66.85
2023-03-29T03:18:27.842Z,66.75
2023-03-29T03:20:58.010Z,66.62
2023-03-29T03:23:26.349Z,66.61
2023-03-29T03:25:54.635Z,66.54
2023-03-29T03:28:24.369Z,66.44
2023-03-29T03:30:52.483Z,66.52
2023-03-29T03:33:20.478Z,66.36
2023-03-29T03:35:48.610Z,66.40
2023-03-29T03:38:18.098Z,66.40
2023-03-29T03:40:45.953Z,66.18
2023-03-29T03:43:13.891Z,65.95
2023-03-29T03:45:43.895Z,65.84
2023-03-29T03:48:11.918Z,65.72
2023-03-29T03:50:40.289Z,65.86
2023-03-29T03:53:08.458Z,65.37
2023-03-29T03:55:37.857Z,65.36
2023-03-29T03:58:07.348Z,65.15
2023-03-29T04:00:35.233Z,64.95
2023-03-29T04:03:06.268Z,64.87
2023-03-29T04:05:34.412Z,64.75
2023-03-29T04:08:03.348Z,64.58
2023-03-29T04:10:31.425Z,64.12
2023-03-29T04:13:02.501Z,64.18
2023-03-29T04:15:31.604Z,64.03
2023-03-29T04:18:00.634Z,63.61
2023-03-29T04:20:28.849Z,63.56
2023-03-29T04:22:56.877Z,63.16
2023-03-29T04:25:25.370Z,63.11
2023-03-29T04:27:53.338Z,62.68
2023-03-29T04:30:22.817Z,62.51
2023-03-29T04:32:50.931Z,62.28
2023-03-29T04:35:19.112Z,62.17
2023-03-29T04:37:48.418Z,62.07
2023-03-29T04:40:19.588Z,62.08
2023-03-29T04:42:48.072Z,62.39
2023-03-29T04:45:18.307Z,61.83
2023-03-29T04:47:47.875Z,62.08
2023-03-29T04:50:15.936Z,61.89
2023-03-29T04:52:45.698Z,61.79
2023-03-29T04:55:13.832Z,61.47
2023-03-29T04:57:41.735Z,61.45
2023-03-29T05:00:15.587Z,61.31
2023-03-29T05:02:44.564Z,61.14
2023-03-29T05:05:14.596Z,61.08
2023-03-29T05:07:42.823Z,60.84
2023-03-29T05:10:10.960Z,60.36
2023-03-29T05:12:39.292Z,60.35
2023-03-29T05:15:08.315Z,60.25
2023-03-29T05:17:36.517Z,60.38
2023-03-29T05:20:09.899Z,60.32
2023-03-29T05:22:40.442Z,60.21
2023-03-29T05:25:09.468Z,60.04
2023-03-29T05:27:37.373Z,59.98
2023-03-29T05:30:05.685Z,59.97
2023-03-29T05:32:33.935Z,59.90
2023-03-29T05:35:01.987Z,60.10
2023-03-29T05:37:30.008Z,59.81
2023-03-29T05:40:05.801Z,59.00
2023-03-29T05:42:34.454Z,58.78
2023-03-29T05:45:02.476Z,58.25
2023-03-29T05:47:30.666Z,58.04
2023-03-29T05:49:58.770Z,57.90
2023-03-29T05:52:26.729Z,57.82
2023-03-29T05:54:54.859Z,57.53
2023-03-29T05:57:24.422Z,57.24
2023-03-29T05:59:52.550Z,57.39
2023-03-29T06:02:20.439Z,56.62
2023-03-29T06:04:48.505Z,56.74
2023-03-29T06:07:16.583Z,56.44
2023-03-29T06:09:44.993Z,56.26
2023-03-29T06:12:13.975Z,56.06
2023-03-29T06:14:43.469Z,55.51
2023-03-29T06:17:11.532Z,55.41
2023-03-29T06:19:39.457Z,55.50
2023-03-29T06:22:07.511Z,55.53
2023-03-29T06:24:35.487Z,55.24
2023-03-29T06:27:03.657Z,55.52
2023-03-29T06:29:31.892Z,55.42
2023-03-29T06:32:01.385Z,55.33
2023-03-29T06:34:29.527Z,55.14
2023-03-29T06:36:57.851Z,55.73
2023-03-29T06:39:27.110Z,55.47
2023-03-29T06:41:55.729Z,55.68
2023-03-29T06:44:23.791Z,55.99
2023-03-29T06:46:52.105Z,56.33
2023-03-29T06:49:21.835Z,57.10
2023-03-29T06:51:50.101Z,57.35
2023-03-29T06:54:18.898Z,58.14
2023-03-29T06:56:47.492Z,58.57
2023-03-29T06:59:15.558Z,60.09
2023-03-29T07:01:45.280Z,61.35
2023-03-29T07:04:13.381Z,60.93
2023-03-29T07:06:48.492Z,61.91
2023-03-29T07:09:18.354Z,62.45
2023-03-29T07:11:47.567Z,61.73
2023-03-29T07:14:15.902Z,61.16
2023-03-29T07:16:47.391Z,61.95
2023-03-29T07:19:15.599Z,63.49
2023-03-29T07:21:44.917Z,63.91
2023-03-29T07:24:13.203Z,65.70
2023-03-29T07:26:52.220Z,64.87
2023-03-29T07:29:24.793Z,65.69
2023-03-29T07:31:52.781Z,65.06
2023-03-29T07:34:21.164Z,66.76
2023-03-29T07:36:50.614Z,66.85
2023-03-29T07:39:18.887Z,69.22
2023-03-29T07:41:46.931Z,69.66
2023-03-29T07:44:14.892Z,72.09
2023-03-29T07:46:43.511Z,70.37
2023-03-29T07:49:11.526Z,72.40
2023-03-29T07:51:39.530Z,72.12
2023-03-29T07:54:09.347Z,71.68
2023-03-29T07:56:37.377Z,71.83
2023-03-29T07:59:05.414Z,70.88
2023-03-29T08:01:33.335Z,71.39
2023-03-29T08:04:01.496Z,71.49
2023-03-29T08:06:29.750Z,71.14
2023-03-29T08:08:57.833Z,71.46
2023-03-29T08:11:27.710Z,71.43
2023-03-29T08:13:56.373Z,72.19
2023-03-29T08:16:24.402Z,72.19
2023-03-29T08:18:52.431Z,72.10
2023-03-29T08:21:20.707Z,72.08
2023-03-29T08:23:48.772Z,71.86
2023-03-29T08:26:17.310Z,71.42
2023-03-29T08:28:46.677Z,70.76
2023-03-29T08:31:14.712Z,70.32
2023-03-29T08:33:44.436Z,71.05
2023-03-29T08:36:12.710Z,70.56
2023-03-29T08:38:40.938Z,69.79
2023-03-29T08:41:15.829Z,70.08
2023-03-29T08:43:59.311Z,69.81
2023-03-29T08:46:35.391Z,70.17
2023-03-29T08:49:05.664Z,70.38
2023-03-29T08:51:34.902Z,71.14
2023-03-29T08:54:04.160Z,71.47
2023-03-29T08:56:34.241Z,72.20
2023-03-29T08:59:04.451Z,72.83
2023-03-29T09:01:35.074Z,73.04
2023-03-29T09:04:06.950Z,74.28
2023-03-29T09:06:34.918Z,74.25
2023-03-29T09:09:02.918Z,74.49
2023-03-29T09:11:39.578Z,74.54
2023-03-29T09:14:21.150Z,74.87
2023-03-29T09:16:54.076Z,75.06
2023-03-29T09:19:27.887Z,75.25
2023-03-29T09:22:00.571Z,74.58
2023-03-29T09:24:39.767Z,75.15
2023-03-29T09:27:11.432Z,74.87
2023-03-29T09:29:50.404Z,76.14
2023-03-29T09:32:21.164Z,76.00
2023-03-29T09:34:53.831Z,76.05
2023-03-29T09:37:24.895Z,76.50
2023-03-29T09:39:53.456Z,77.21
2023-03-29T09:42:22.052Z,77.44
2023-03-29T09:44:52.959Z,77.48
2023-03-29T09:47:25.053Z,77.75
2023-03-29T09:49:57.203Z,78.21
2023-03-29T09:52:25.249Z,78.62
2023-03-29T09:54:53.407Z,78.43
2023-03-29T09:57:21.571Z,78.63
2023-03-29T09:59:52.615Z,79.02
2023-03-29T10:02:21.345Z,78.64
2023-03-29T10:04:55.378Z,78.97
2023-03-29T10:07:23.806Z,78.75
2023-03-29T10:09:53.720Z,78.60
2023-03-29T10:12:23.236Z,78.56
2023-03-29T10:14:55.284Z,78.25
2023-03-29T10:17:24.473Z,78.82
2023-03-29T10:19:52.985Z,79.12
2023-03-29T10:22:23.413Z,78.83
2023-03-29T10:24:52.761Z,78.92
2023-03-29T10:27:23.464Z,78.95
2023-03-29T10:29:53.472Z,78.99
2023-03-29T10:32:27.326Z,78.59
2023-03-29T10:34:56.247Z,78.72
2023-03-29T10:37:24.270Z,78.21
2023-03-29T10:39:52.781Z,77.98
2023-03-29T10:42:21.956Z,78.60
2023-03-29T10:44:56.184Z,78.70
2023-03-29T10:47:24.436Z,78.93
2023-03-29T10:49:56.387Z,79.13
2023-03-29T10:52:25.129Z,79.14
2023-03-29T10:54:54.118Z,79.69
2023-03-29T10:57:27.967Z,79.37
2023-03-29T11:00:01.143Z,79.40
2023-03-29T11:02:49.448Z,79.72
2023-03-29T11:05:24.690Z,79.38
2023-03-29T11:08:19.144Z,79.38
2023-03-29T11:10:50.625Z,79.64
2023-03-29T11:13:23.702Z,79.61
2023-03-29T11:15:58.564Z,79.50
2023-03-29T11:18:33.741Z,79.31
2023-03-29T11:21:10.190Z,79.45
2023-03-29T11:23:47.592Z,79.50
2023-03-29T11:26:18.520Z,79.66
2023-03-29T11:28:50.203Z,80.51
2023-03-29T11:31:25.450Z,80.53
2023-03-29T11:33:58.908Z,80.18
2023-03-29T11:36:31.888Z,80.47
2023-03-29T11:39:05.785Z,80.64
2023-03-29T11:41:37.020Z,80.52
2023-03-29T11:44:07.481Z,80.78
2023-03-29T11:46:39.367Z,81.14
2023-03-29T11:49:11.281Z,80.68
2023-03-29T11:51:41.427Z,80.97
2023-03-29T11:54:16.170Z,81.18
2023-03-29T11:56:46.424Z,81.10
2023-03-29T11:59:17.651Z,81.52
2023-03-29T12:01:51.029Z,81.35
2023-03-29T12:04:23.097Z,80.86
2023-03-29T12:06:55.748Z,80.50
2023-03-29T12:09:30.935Z,80.90
2023-03-29T12:12:04.911Z,80.88
2023-03-29T12:14:39.236Z,80.94
2023-03-29T12:17:13.858Z,80.85
2023-03-29T12:19:44.526Z,80.84
2023-03-29T12:22:12.446Z,81.00
2023-03-29T12:24:42.622Z,81.08
2023-03-29T12:27:20.930Z,81.32
2023-03-29T12:29:56.170Z,80.89
2023-03-29T12:32:43.107Z,81.46
2023-03-29T12:35:22.328Z,81.38
2023-03-29T12:37:56.772Z,81.51
2023-03-29T12:40:27.708Z,81.84
2023-03-29T12:42:57.818Z,81.73
2023-03-29T12:45:31.000Z,82.00
2023-03-29T12:48:01.443Z,82.19
2023-03-29T12:50:33.447Z,81.75
2023-03-29T12:53:08.775Z,81.27
2023-03-29T12:55:49.545Z,80.92
2023-03-29T12:58:28.392Z,81.16
2023-03-29T13:01:06.383Z,81.64
2023-03-29T13:03:43.626Z,81.30
2023-03-29T13:06:13.325Z,81.26
2023-03-29T13:08:42.685Z,81.08
2023-03-29T13:11:13.675Z,80.86
2023-03-29T13:13:42.668Z,80.63
2023-03-29T13:16:12.878Z,81.07
2023-03-29T13:18:50.089Z,81.54
2023-03-29T13:21:22.968Z,81.76
2023-03-29T13:23:58.591Z,81.43
2023-03-29T13:26:38.461Z,81.29
2023-03-29T13:29:18.959Z,82.02
2023-03-29T13:31:50.551Z,81.79
2023-03-29T13:34:30.354Z,82.51
2023-03-29T13:37:02.603Z,82.58
2023-03-29T13:39:32.040Z,82.48
2023-03-29T13:42:08.917Z,82.56
2023-03-29T13:44:43.685Z,82.79
2023-03-29T13:47:16.470Z,82.96
2023-03-29T13:49:51.752Z,82.92
2023-03-29T13:52:22.954Z,83.18
2023-03-29T13:54:54.207Z,82.45
2023-03-29T13:57:25.297Z,83.04
2023-03-29T13:59:58.475Z,83.41
2023-03-29T14:02:36.493Z,83.10
2023-03-29T14:05:09.997Z,83.25
2023-03-29T14:07:39.335Z,83.37
2023-03-29T14:10:08.657Z,83.32
2023-03-29T14:12:41.184Z,83.86
2023-03-29T14:15:20.961Z,83.46
2023-03-29T14:17:49.185Z,83.11
2023-03-29T14:20:19.232Z,83.10
2023-03-29T14:22:47.663Z,83.02
2023-03-29T14:25:17.566Z,83.22
2023-03-29T14:27:45.663Z,82.95
2023-03-29T14:30:48.621Z,83.82
2023-03-29T14:33:16.912Z,83.72
2023-03-29T14:35:46.407Z,83.49
2023-03-29T14:38:14.404Z,83.42
2023-03-29T14:40:45.122Z,83.48
2023-03-29T14:43:16.007Z,82.69
2023-03-29T14:45:45.744Z,83.11
2023-03-29T14:48:14.838Z,83.36
2023-03-29T14:50:43.541Z,83.07
2023-03-29T14:53:17.848Z,83.12
2023-03-29T14:55:48.105Z,83.21
2023-03-29T14:58:18.648Z,83.30
2023-03-29T15:00:49.294Z,83.01
2023-03-29T15:03:18.009Z,83.17
2023-03-29T15:05:49.317Z,83.45
2023-03-29T15:08:20.008Z,83.35
2023-03-29T15:10:48.068Z,83.32
2023-03-29T15:13:17.916Z,82.98
2023-03-29T15:15:46.225Z,83.41
2023-03-29T15:18:16.900Z,83.32
2023-03-29T15:20:45.529Z,83.56
2023-03-29T15:23:25.036Z,83.25
2023-03-29T15:25:57.067Z,83.14
2023-03-29T15:28:28.451Z,83.29
2023-03-29T15:33:36.195Z,83.18
2023-03-29T15:36:05.956Z,82.84
2023-03-29T15:38:43.301Z,82.85
2023-03-29T15:41:12.498Z,83.08
2023-03-29T15:43:41.546Z,82.87
2023-03-29T15:46:09.783Z,82.74
2023-03-29T15:48:37.813Z,82.70
2023-03-29T15:51:06.936Z,83.20
2023-03-29T15:53:37.043Z,82.90
2023-03-29T15:56:07.574Z,82.94
2023-03-29T15:58:36.752Z,83.20
2023-03-29T16:01:12.181Z,83.37
2023-03-29T16:03:40.517Z,83.55
2023-03-29T16:06:11.450Z,83.34
2023-03-29T16:08:42.871Z,83.25
2023-03-29T16:11:11.805Z,83.20
2023-03-29T16:13:39.882Z,82.94
2023-03-29T16:16:09.295Z,82.78
2023-03-29T16:18:37.335Z,83.04
2023-03-29T16:21:05.660Z,83.50
2023-03-29T16:23:33.632Z,83.42
2023-03-29T16:26:03.443Z,83.19
2023-03-29T16:28:31.782Z,82.87
2023-03-29T16:30:59.727Z,83.05
2023-03-29T16:33:27.714Z,83.12
2023-03-29T16:35:56.282Z,83.03
2023-03-29T16:38:26.045Z,82.95
2023-03-29T16:40:53.981Z,82.78
2023-03-29T16:43:23.468Z,82.78
2023-03-29T16:45:51.336Z,82.71
2023-03-29T16:48:19.902Z,82.69
2023-03-29T16:50:49.520Z,82.92
2023-03-29T16:53:18.381Z,82.69
2023-03-29T16:55:46.850Z,82.53
2023-03-29T16:58:15.591Z,82.88
2023-03-29T17:00:48.186Z,83.03
2023-03-29T17:03:17.073Z,82.90
2023-03-29T17:05:47.799Z,82.46
2023-03-29T17:08:16.342Z,82.63
2023-03-29T17:10:44.549Z,82.72
2023-03-29T17:13:13.131Z,82.46
2023-03-29T17:15:41.152Z,82.37
2023-03-29T17:18:10.791Z,82.02
2023-03-29T17:20:40.047Z,82.09
2023-03-29T17:23:09.062Z,82.04
2023-03-29T17:25:37.313Z,81.98
2023-03-29T17:28:05.822Z,82.01
2023-03-29T17:30:34.926Z,81.89
2023-03-29T17:33:03.353Z,82.00
2023-03-29T17:35:33.254Z,82.04
2023-03-29T17:38:01.781Z,81.90
2023-03-29T17:40:30.179Z,82.25
2023-03-29T17:42:58.123Z,82.27
2023-03-29T17:45:26.587Z,82.31
2023-03-29T17:47:54.671Z,82.28
2023-03-29T17:50:22.794Z,82.07
2023-03-29T17:52:52.138Z,82.18
2023-03-29T17:55:21.226Z,82.36
2023-03-29T17:57:50.127Z,82.38
2023-03-29T18:00:18.565Z,82.48
2023-03-29T18:02:46.762Z,82.46
2023-03-29T18:05:14.925Z,82.37
2023-03-29T18:07:42.794Z,82.55
2023-03-29T18:10:12.737Z,82.77
2023-03-29T18:12:40.748Z,82.54
2023-03-29T18:15:09.517Z,82.25
2023-03-29T18:17:37.637Z,82.42
2023-03-29T18:20:11.217Z,82.43
2023-03-29T18:22:39.167Z,82.46
2023-03-29T18:25:09.572Z,82.04
2023-03-29T18:27:39.625Z,82.47
2023-03-29T18:30:10.861Z,82.16
2023-03-29T18:32:38.838Z,82.21
2023-03-29T18:35:07.524Z,81.81
2023-03-29T18:37:36.384Z,82.05
2023-03-29T18:40:07.963Z,82.25
2023-03-29T18:42:36.001Z,82.24
2023-03-29T18:45:05.955Z,82.41
2023-03-29T18:47:34.104Z,82.36
2023-03-29T18:50:02.917Z,82.34
2023-03-29T18:52:31.064Z,82.22
2023-03-29T18:54:59.025Z,82.51
2023-03-29T18:57:27.059Z,82.40
2023-03-29T18:59:55.160Z,82.17
2023-03-29T19:02:24.803Z,82.06
2023-03-29T19:04:52.905Z,82.52
2023-03-29T19:07:22.090Z,82.67
2023-03-29T19:09:56.764Z,82.47
2023-03-29T19:12:24.748Z,82.24
2023-03-29T19:14:52.765Z,82.13
2023-03-29T19:17:20.764Z,82.44
2023-03-29T19:19:50.191Z,82.13
2023-03-29T19:22:18.067Z,82.12
2023-03-29T19:24:46.059Z,82.20
2023-03-29T19:27:14.722Z,82.21
2023-03-29T19:29:42.689Z,82.15
2023-03-29T19:32:10.608Z,82.45
2023-03-29T19:34:38.828Z,82.25
2023-03-29T19:37:08.199Z,82.05
2023-03-29T19:39:36.130Z,82.16
2023-03-29T19:42:04.294Z,82.00
2023-03-29T19:44:32.251Z,81.88
2023-03-29T19:47:00.396Z,81.82
2023-03-29T19:49:28.616Z,82.39
2023-03-29T19:51:57.630Z,82.13
2023-03-29T19:54:27.338Z,82.44
2023-03-29T19:56:57.445Z,82.88
2023-03-29T19:59:25.501Z,82.73
2023-03-29T20:01:57.019Z,82.59
2023-03-29T20:04:26.071Z,82.64
2023-03-29T20:06:54.129Z,83.02
2023-03-29T20:09:22.236Z,82.82
2023-03-29T20:11:51.578Z,82.63
2023-03-29T20:14:19.534Z,82.73
2023-03-29T20:16:49.783Z,82.58
2023-03-29T20:19:25.372Z,82.71
2023-03-29T20:21:55.212Z,82.78
2023-03-29T20:24:23.516Z,83.00
2023-03-29T20:26:53.400Z,82.87
2023-03-29T20:29:21.426Z,82.60
2023-03-29T20:31:49.581Z,82.63
2023-03-29T20:34:18.305Z,82.53
2023-03-29T20:36:46.838Z,82.57
2023-03-29T20:39:17.817Z,82.45
2023-03-29T20:41:47.861Z,82.42
2023-03-29T20:44:18.585Z,82.35
2023-03-29T20:46:54.332Z,82.25
2023-03-29T20:49:26.651Z,82.29
2023-03-29T20:51:58.846Z,82.17
2023-03-29T20:54:26.970Z,82.11
2023-03-29T20:56:56.186Z,82.11
2023-03-29T20:59:25.692Z,82.08
2023-03-29T21:01:53.850Z,82.32
2023-03-29T21:04:21.844Z,82.11
2023-03-29T21:06:50.473Z,82.14
2023-03-29T21:09:19.290Z,82.03
2023-03-29T21:11:47.314Z,82.02
2023-03-29T21:14:19.640Z,82.16
2023-03-29T21:16:49.363Z,82.06
2023-03-29T21:19:18.228Z,82.01
2023-03-29T21:21:47.737Z,81.83
2023-03-29T21:24:15.911Z,81.68
2023-03-29T21:26:45.743Z,81.81
2023-03-29T21:29:13.738Z,81.52
2023-03-29T21:31:41.941Z,81.67
2023-03-29T21:34:11.477Z,81.90
2023-03-29T21:36:40.035Z,81.45
2023-03-29T21:39:07.969Z,81.65
2023-03-29T21:41:35.960Z,81.59
2023-03-29T21:44:03.948Z,81.53
2023-03-29T21:46:31.986Z,81.37
2023-03-29T21:49:00.104Z,81.45
2023-03-29T21:51:29.524Z,81.31
2023-03-29T21:53:57.448Z,81.10
2023-03-29T21:56:26.501Z,81.06
2023-03-29T21:58:54.472Z,81.12
2023-03-29T22:01:22.412Z,80.98
2023-03-29T22:03:50.535Z,80.95
2023-03-29T22:06:18.533Z,80.81
2023-03-29T22:08:49.629Z,80.79
2023-03-29T22:11:17.601Z,80.79
2023-03-29T22:13:45.625Z,80.73
2023-03-29T22:16:16.944Z,80.62
2023-03-29T22:18:46.995Z,80.51
2023-03-29T22:21:16.436Z,80.61
2023-03-29T22:23:45.579Z,80.72
2023-03-29T22:26:15.957Z,80.62
2023-03-29T22:28:44.383Z,80.31
2023-03-29T22:31:13.278Z,80.48
2023-03-29T22:33:41.889Z,80.21
2023-03-29T22:36:14.122Z,80.46
2023-03-29T22:38:42.052Z,80.51
2023-03-29T22:41:09.990Z,80.38
2023-03-29T22:43:39.924Z,80.35
2023-03-29T22:46:08.756Z,80.48
2023-03-29T22:48:37.321Z,80.21
2023-03-29T22:51:06.695Z,80.19
2023-03-29T22:53:34.975Z,80.23
2023-03-29T22:56:02.915Z,80.34
2023-03-29T22:58:30.805Z,80.11
2023-03-29T23:01:00.301Z,80.11
2023-03-29T23:03:28.330Z,80.18
2023-03-29T23:05:57.049Z,80.12
2023-03-29T23:08:25.674Z,80.19
2023-03-29T23:10:53.636Z,80.23
2023-03-29T23:13:25.906Z,80.09
2023-03-29T23:15:55.242Z,80.06
2023-03-29T23:18:24.893Z,79.99
2023-03-29T23:20:54.728Z,79.82
2023-03-29T23:23:23.183Z,79.79
2023-03-29T23:25:52.509Z,80.13
2023-03-29T23:28:21.968Z,79.91
2023-03-29T23:30:55.273Z,79.92
2023-03-29T23:33:25.876Z,80.00
2023-03-29T23:35:54.170Z,79.96
2023-03-29T23:38:22.077Z,79.91
2023-03-29T23:40:58.959Z,79.83
2023-03-29T23:43:27.414Z,79.86
2023-03-29T23:45:58.864Z,79.67
2023-03-29T23:48:28.272Z,79.67
2023-03-29T23:50:57.370Z,79.73
2023-03-29T23:53:29.077Z,79.67
2023-03-29T23:55:58.416Z,79.96
2023-03-29T23:58:26.451Z,79.77
